createdAt,value
2019-01-11T00:00:27.520Z,23.87
2019-01-11T00:02:56.164Z,27.80
2019-01-11T00:05:24.751Z,27.48
2019-01-11T00:07:53.328Z,27.77
2019-01-11T00:10:21.924Z,22.73
2019-01-11T00:12:50.491Z,25.00
2019-01-11T00:15:19.095Z,21.50
2019-01-11T00:17:47.672Z,22.82
2019-01-11T00:20:16.271Z,32.35
2019-01-11T00:22:44.847Z,22.77
2019-01-11T00:25:13.569Z,22.42
2019-01-11T00:27:42.144Z,27.58
2019-01-11T00:30:13.766Z,31.33
2019-01-11T00:32:42.342Z,27.70
2019-01-11T00:35:11.000Z,27.90
2019-01-11T00:37:39.570Z,24.70
2019-01-11T00:40:08.161Z,27.32
2019-01-11T00:42:36.735Z,24.32
2019-01-11T00:45:08.366Z,30.45
2019-01-11T00:47:36.940Z,25.68
2019-01-11T00:50:07.871Z,29.27
2019-01-11T00:52:36.439Z,27.00
2019-01-11T00:55:07.371Z,30.40
2019-01-11T00:57:35.938Z,27.58
2019-01-11T01:00:19.322Z,31.27
2019-01-11T01:02:48.134Z,25.80
2019-01-11T01:05:16.794Z,29.20
2019-01-11T01:07:45.606Z,27.58
2019-01-11T01:10:14.334Z,32.00
2019-01-11T01:12:42.907Z,29.72
2019-01-11T01:15:12.303Z,22.42
2019-01-11T01:17:40.875Z,25.77
2019-01-11T01:20:12.903Z,28.47
2019-01-11T01:22:41.481Z,25.08
2019-01-11T01:25:11.674Z,23.38
2019-01-11T01:27:40.390Z,23.22
2019-01-11T01:30:19.386Z,21.97
2019-01-11T01:32:48.022Z,21.60
2019-01-11T01:35:16.620Z,24.80
2019-01-11T01:37:45.205Z,25.35
2019-01-11T01:40:15.707Z,18.40
2019-01-11T01:42:44.439Z,19.05
2019-01-11T01:45:16.138Z,23.35
2019-01-11T01:47:44.838Z,20.72
2019-01-11T01:50:13.752Z,21.75
2019-01-11T01:52:42.415Z,17.00
2019-01-11T01:55:12.718Z,23.22
2019-01-11T01:57:41.324Z,18.25
2019-01-11T02:00:18.526Z,22.02
2019-01-11T02:02:47.255Z,17.30
2019-01-11T02:05:16.358Z,17.85
2019-01-11T02:07:44.947Z,17.23
2019-01-11T02:10:14.254Z,20.15
2019-01-11T02:12:42.839Z,18.77
2019-01-11T02:15:12.246Z,17.77
2019-01-11T02:17:40.838Z,18.90
2019-01-11T02:20:12.442Z,14.47
2019-01-11T02:22:41.107Z,19.45
2019-01-11T02:25:10.013Z,20.77
2019-01-11T02:27:38.607Z,19.92
2019-01-11T02:30:18.959Z,17.62
2019-01-11T02:32:52.379Z,14.05
2019-01-11T02:35:17.831Z,15.48
2019-01-11T02:37:46.658Z,19.23
2019-01-11T02:40:15.487Z,16.90
2019-01-11T02:42:44.089Z,15.00
2019-01-11T02:45:15.654Z,16.62
2019-01-11T02:47:44.243Z,17.80
2019-01-11T02:50:13.851Z,21.37
2019-01-11T02:52:42.612Z,16.62
2019-01-11T02:55:11.242Z,18.02
2019-01-11T02:57:39.849Z,17.87
2019-01-11T03:00:14.304Z,14.15
2019-01-11T03:02:43.030Z,15.72
2019-01-11T03:05:12.144Z,20.35
2019-01-11T03:07:40.976Z,16.45
2019-01-11T03:10:12.619Z,19.32
2019-01-11T03:12:41.202Z,18.07
2019-01-11T03:15:10.814Z,16.12
2019-01-11T03:17:39.394Z,16.07
2019-01-11T03:20:10.672Z,19.57
2019-01-11T03:22:39.259Z,17.82
2019-01-11T03:25:10.167Z,18.32
2019-01-11T03:27:38.823Z,20.82
2019-01-11T03:30:16.227Z,17.27
2019-01-11T03:32:44.820Z,19.95
2019-01-11T03:35:17.518Z,18.35
2019-01-11T03:37:47.749Z,18.50
2019-01-11T03:40:18.664Z,16.00
2019-01-11T03:42:47.252Z,19.27
2019-01-11T03:45:17.758Z,21.05
2019-01-11T03:47:46.417Z,18.55
2019-01-11T03:50:17.017Z,19.10
2019-01-11T03:52:45.740Z,22.15
2019-01-11T03:55:15.521Z,20.70
2019-01-11T03:57:44.176Z,13.38
2019-01-11T04:00:15.384Z,16.60
2019-01-11T04:02:43.979Z,18.73
2019-01-11T04:05:12.624Z,20.52
2019-01-11T04:07:41.206Z,20.55
2019-01-11T04:10:12.848Z,15.25
2019-01-11T04:12:41.445Z,16.65
2019-01-11T04:15:12.538Z,16.70
2019-01-11T04:17:41.123Z,18.80
2019-01-11T04:20:15.999Z,12.58
2019-01-11T04:22:46.291Z,15.95
2019-01-11T04:25:19.668Z,14.25
2019-01-11T04:27:48.266Z,15.98
2019-01-11T04:30:17.383Z,15.83
2019-01-11T04:32:45.956Z,13.98
2019-01-11T04:35:14.593Z,16.32
2019-01-11T04:37:43.189Z,12.85
2019-01-11T04:40:13.492Z,12.78
2019-01-11T04:42:42.078Z,22.42
2019-01-11T04:45:10.883Z,11.08
2019-01-11T04:47:39.486Z,11.12
2019-01-11T04:50:10.978Z,11.35
2019-01-11T04:52:39.573Z,12.37
2019-01-11T04:55:08.271Z,12.85
2019-01-11T04:57:36.858Z,10.95
2019-01-11T05:00:08.793Z,10.28
2019-01-11T05:02:37.383Z,18.25
2019-01-11T05:05:06.375Z,16.35
2019-01-11T05:07:34.965Z,13.38
2019-01-11T05:10:05.767Z,9.48
2019-01-11T05:12:34.360Z,10.78
2019-01-11T05:15:02.922Z,10.20
2019-01-11T05:17:31.513Z,17.07
2019-01-11T05:20:00.370Z,14.68
2019-01-11T05:22:28.967Z,14.55
2019-01-11T05:24:57.535Z,15.70
2019-01-11T05:27:26.131Z,17.45
2019-01-11T05:29:54.694Z,21.97
2019-01-11T05:32:23.285Z,13.62
2019-01-11T05:34:51.855Z,18.25
2019-01-11T05:37:20.443Z,16.27
2019-01-11T05:39:49.016Z,15.05
2019-01-11T05:42:17.606Z,17.55
2019-01-11T05:44:46.176Z,20.70
2019-01-11T05:47:14.759Z,16.87
2019-01-11T05:49:43.333Z,23.25
2019-01-11T05:52:11.894Z,20.75
2019-01-11T05:54:40.491Z,18.40
2019-01-11T05:57:09.068Z,20.60
2019-01-11T05:59:37.654Z,20.27
2019-01-11T06:02:06.355Z,16.73
2019-01-11T06:04:36.583Z,24.60
2019-01-11T06:07:06.795Z,22.67
2019-01-11T06:09:35.387Z,20.97
2019-01-11T06:12:03.962Z,22.93
2019-01-11T06:14:32.552Z,25.82
2019-01-11T06:17:01.135Z,20.35
2019-01-11T06:19:29.739Z,21.37
2019-01-11T06:21:58.307Z,26.60
2019-01-11T06:24:26.895Z,27.85
2019-01-11T06:26:55.473Z,21.37
2019-01-11T06:29:24.067Z,25.32
2019-01-11T06:31:52.626Z,25.52
2019-01-11T06:34:21.219Z,30.70
2019-01-11T06:36:49.790Z,22.75
2019-01-11T06:39:18.375Z,24.10
2019-01-11T06:41:48.586Z,25.62
2019-01-11T06:44:17.182Z,28.17
2019-01-11T06:46:46.322Z,29.50
2019-01-11T06:49:14.915Z,29.27
2019-01-11T06:51:43.478Z,28.83
2019-01-11T06:54:12.075Z,30.15
2019-01-11T06:56:40.647Z,27.48
2019-01-11T06:59:11.886Z,37.75
2019-01-11T07:01:40.458Z,35.90
2019-01-11T07:04:09.043Z,30.70
2019-01-11T07:06:37.619Z,33.30
2019-01-11T07:09:07.852Z,26.57
2019-01-11T07:11:36.427Z,33.40
2019-01-11T07:14:05.162Z,28.62
2019-01-11T07:16:33.735Z,30.02
2019-01-11T07:19:02.323Z,28.27
2019-01-11T07:21:30.900Z,34.10
2019-01-11T07:23:59.490Z,34.35
2019-01-11T07:26:28.059Z,35.17
2019-01-11T07:28:56.647Z,34.43
2019-01-11T07:31:25.286Z,37.03
2019-01-11T07:33:54.052Z,32.78
2019-01-11T07:36:29.230Z,31.60
2019-01-11T07:38:57.952Z,34.18
2019-01-11T07:41:26.590Z,42.13
2019-01-11T07:43:55.169Z,34.67
2019-01-11T07:46:23.743Z,36.58
2019-01-11T07:48:52.335Z,37.10
2019-01-11T07:51:20.912Z,28.75
2019-01-11T07:53:49.503Z,35.20
2019-01-11T07:56:18.075Z,45.88
2019-01-11T07:58:46.669Z,40.65
2019-01-11T08:01:15.312Z,33.60
2019-01-11T08:03:43.898Z,33.02
2019-01-11T08:06:12.540Z,35.52
2019-01-11T08:08:41.194Z,27.30
2019-01-11T08:11:09.772Z,27.27
2019-01-11T08:13:38.367Z,28.17
2019-01-11T08:16:06.934Z,24.85
2019-01-11T08:18:35.527Z,34.10
2019-01-11T08:21:04.103Z,35.55
2019-01-11T08:23:32.701Z,26.30
2019-01-11T08:26:01.258Z,31.20
2019-01-11T08:28:31.796Z,27.07
2019-01-11T08:31:00.370Z,27.52
2019-01-11T08:33:30.598Z,27.37
2019-01-11T08:35:59.171Z,26.95
2019-01-11T08:38:27.739Z,29.12
2019-01-11T08:40:56.327Z,31.15
2019-01-11T08:43:24.967Z,37.33
2019-01-11T08:45:53.560Z,30.88
2019-01-11T08:48:22.130Z,27.10
2019-01-11T08:50:50.795Z,28.77
2019-01-11T08:53:19.358Z,26.52
2019-01-11T08:55:47.954Z,30.82
2019-01-11T08:58:16.523Z,33.60
2019-01-11T09:00:45.286Z,37.20
2019-01-11T09:03:13.859Z,28.05
2019-01-11T09:05:42.454Z,29.48
2019-01-11T09:08:11.023Z,31.45
2019-01-11T09:10:39.611Z,32.28
2019-01-11T09:13:08.192Z,29.87
2019-01-11T09:15:36.775Z,31.75
2019-01-11T09:18:12.702Z,28.38
2019-01-11T09:20:41.563Z,31.75
2019-01-11T09:23:10.203Z,33.88
2019-01-11T09:25:38.796Z,28.65
2019-01-11T09:28:07.608Z,34.60
2019-01-11T09:30:36.270Z,27.37
2019-01-11T09:33:05.107Z,31.62
2019-01-11T09:35:33.703Z,31.00
2019-01-11T09:38:02.548Z,38.13
2019-01-11T09:40:31.137Z,29.87
2019-01-11T09:42:59.703Z,27.93
2019-01-11T09:45:28.466Z,32.08
2019-01-11T09:47:57.098Z,37.45
2019-01-11T09:50:25.758Z,33.58
2019-01-11T09:52:54.336Z,35.73
2019-01-11T09:55:22.928Z,33.05
2019-01-11T09:57:51.499Z,30.88
2019-01-11T10:00:23.025Z,28.75
2019-01-11T10:02:53.303Z,28.83
2019-01-11T10:05:21.891Z,29.85
2019-01-11T10:07:50.467Z,43.73
2019-01-11T10:10:19.126Z,32.40
2019-01-11T10:12:48.571Z,29.37
2019-01-11T10:15:17.298Z,29.48
2019-01-11T10:17:47.340Z,29.25
2019-01-11T10:20:16.003Z,30.52
2019-01-11T10:22:44.575Z,24.40
2019-01-11T10:25:13.244Z,24.95
2019-01-11T10:27:41.883Z,22.52
2019-01-11T10:30:13.210Z,21.40
2019-01-11T10:32:41.852Z,22.50
2019-01-11T10:35:11.180Z,23.52
2019-01-11T10:37:39.753Z,21.17
2019-01-11T10:40:11.182Z,20.50
2019-01-11T10:42:39.827Z,21.62
2019-01-11T10:45:11.555Z,20.77
2019-01-11T10:47:40.125Z,21.82
2019-01-11T10:50:12.690Z,20.95
2019-01-11T10:52:41.434Z,19.90
2019-01-11T10:55:12.263Z,20.35
2019-01-11T10:57:41.070Z,16.37
2019-01-11T11:00:18.363Z,19.20
2019-01-11T11:02:46.934Z,19.27
2019-01-11T11:05:15.523Z,19.27
2019-01-11T11:07:44.227Z,20.40
2019-01-11T11:10:13.957Z,19.87
2019-01-11T11:12:42.519Z,18.62
2019-01-11T11:15:13.547Z,18.35
2019-01-11T11:17:42.112Z,19.07
2019-01-11T11:20:13.352Z,19.32
2019-01-11T11:22:41.992Z,18.55
2019-01-11T11:25:13.519Z,19.40
2019-01-11T11:27:42.087Z,20.97
2019-01-11T11:30:13.214Z,17.98
2019-01-11T11:32:49.015Z,16.23
2019-01-11T11:35:17.608Z,16.87
2019-01-11T11:37:46.175Z,19.15
2019-01-11T11:40:14.899Z,15.28
2019-01-11T11:42:43.461Z,13.85
2019-01-11T11:45:12.127Z,14.73
2019-01-11T11:47:40.686Z,15.32
2019-01-11T11:50:10.623Z,16.60
2019-01-11T11:52:39.255Z,15.05
2019-01-11T11:55:09.289Z,15.60
2019-01-11T11:57:37.917Z,18.95
2019-01-11T12:00:09.587Z,15.90
2019-01-11T12:02:38.155Z,18.55
2019-01-11T12:05:07.483Z,17.98
2019-01-11T12:07:36.050Z,14.83
2019-01-11T12:10:06.666Z,14.58
2019-01-11T12:12:35.250Z,18.82
2019-01-11T12:15:04.593Z,23.62
2019-01-11T12:17:33.179Z,19.52
2019-01-11T12:20:01.822Z,18.55
2019-01-11T12:22:30.424Z,16.10
2019-01-11T12:24:58.975Z,17.40
2019-01-11T12:27:27.559Z,18.73
2019-01-11T12:29:56.123Z,20.27
2019-01-11T12:32:24.710Z,19.02
2019-01-11T12:34:53.277Z,16.17
2019-01-11T12:37:21.867Z,16.32
2019-01-11T12:39:50.434Z,24.27
2019-01-11T12:42:19.022Z,18.77
2019-01-11T12:44:47.662Z,31.20
2019-01-11T12:47:16.255Z,17.57
2019-01-11T12:49:44.828Z,16.95
2019-01-11T12:52:13.428Z,16.65
2019-01-11T12:54:41.987Z,19.40
2019-01-11T12:57:10.582Z,16.95
2019-01-11T12:59:39.147Z,16.57
2019-01-11T13:02:07.867Z,19.17
2019-01-11T13:04:36.439Z,19.30
2019-01-11T13:07:05.023Z,22.50
2019-01-11T13:09:33.587Z,16.77
2019-01-11T13:12:02.174Z,18.80
2019-01-11T13:14:30.734Z,16.20
2019-01-11T13:16:59.331Z,18.87
2019-01-11T13:19:27.903Z,18.90
2019-01-11T13:22:00.547Z,23.47
2019-01-11T13:24:26.716Z,20.12
2019-01-11T13:26:55.382Z,24.20
2019-01-11T13:29:24.024Z,21.95
2019-01-11T13:31:52.615Z,22.45
2019-01-11T13:34:21.186Z,20.40
2019-01-11T13:36:53.848Z,22.75
2019-01-11T13:39:19.991Z,20.88
2019-01-11T13:41:48.579Z,17.87
2019-01-11T13:44:17.150Z,22.48
2019-01-11T13:46:45.811Z,23.47
2019-01-11T13:49:14.383Z,22.48
2019-01-11T13:51:42.975Z,20.20
2019-01-11T13:54:11.538Z,23.47
2019-01-11T13:56:40.134Z,21.07
2019-01-11T13:59:08.703Z,22.42
2019-01-11T14:01:37.299Z,26.57
2019-01-11T14:04:05.871Z,25.88
2019-01-11T14:06:34.460Z,21.02
2019-01-11T14:09:03.091Z,23.70
2019-01-11T14:11:33.689Z,21.60
2019-01-11T14:14:02.310Z,25.02
2019-01-11T14:16:30.901Z,21.93
2019-01-11T14:18:59.467Z,28.38
2019-01-11T14:21:28.062Z,22.70
2019-01-11T14:23:56.636Z,36.48
2019-01-11T14:26:25.227Z,26.62
2019-01-11T14:28:53.799Z,26.75
2019-01-11T14:31:22.391Z,23.38
2019-01-11T14:33:50.978Z,31.65
2019-01-11T14:36:19.575Z,29.05
2019-01-11T14:38:48.140Z,29.70
2019-01-11T14:41:16.984Z,23.00
2019-01-11T14:43:45.575Z,24.90
2019-01-11T14:46:14.139Z,25.10
2019-01-11T14:48:42.731Z,27.17
2019-01-11T14:51:11.371Z,26.65
2019-01-11T14:53:39.971Z,28.62
2019-01-11T14:56:08.535Z,30.68
2019-01-11T14:58:37.134Z,24.80
2019-01-11T15:01:05.718Z,30.97
2019-01-11T15:03:34.294Z,26.48
2019-01-11T15:06:02.867Z,27.17
2019-01-11T15:08:31.450Z,25.88
2019-01-11T15:11:00.019Z,24.27
2019-01-11T15:13:28.612Z,22.32
2019-01-11T15:15:57.187Z,29.15
2019-01-11T15:18:25.771Z,29.23
2019-01-11T15:20:54.343Z,30.25
2019-01-11T15:23:22.938Z,30.45
2019-01-11T15:25:51.501Z,30.70
2019-01-11T15:28:20.093Z,34.00
2019-01-11T15:30:48.663Z,33.42
2019-01-11T15:33:17.327Z,32.30
2019-01-11T15:35:45.986Z,32.40
2019-01-11T15:38:14.752Z,33.28
2019-01-11T15:40:43.467Z,33.15
2019-01-11T15:43:12.103Z,39.05
2019-01-11T15:45:40.667Z,33.53
2019-01-11T15:48:13.311Z,34.05
2019-01-11T15:50:52.202Z,33.45
2019-01-11T15:53:20.806Z,34.95
2019-01-11T15:55:49.603Z,34.45
2019-01-11T15:58:18.203Z,37.88
2019-01-11T16:00:48.412Z,37.60
2019-01-11T16:03:17.638Z,38.50
2019-01-11T16:05:46.207Z,38.58
2019-01-11T16:08:14.790Z,40.88
2019-01-11T16:11:07.168Z,38.28
2019-01-11T16:13:38.962Z,43.90
2019-01-11T16:16:10.070Z,39.83
2019-01-11T16:18:38.650Z,41.50
2019-01-11T16:21:07.227Z,36.68
2019-01-11T16:23:35.808Z,41.18
2019-01-11T16:26:04.511Z,43.28
2019-01-11T16:28:33.096Z,46.05
2019-01-11T16:31:01.663Z,47.67
2019-01-11T16:33:30.247Z,42.40
2019-01-11T16:35:58.817Z,41.92
2019-01-11T16:38:27.408Z,49.13
2019-01-11T16:40:55.971Z,46.15
2019-01-11T16:43:24.563Z,46.83
2019-01-11T16:45:53.128Z,43.05
2019-01-11T16:48:21.724Z,49.23
2019-01-11T16:50:50.287Z,48.80
2019-01-11T16:53:18.870Z,52.85
2019-01-11T16:55:47.443Z,54.20
2019-01-11T16:58:16.027Z,50.58
2019-01-11T17:00:44.595Z,53.70
2019-01-11T17:03:13.200Z,51.75
2019-01-11T17:05:41.759Z,52.38
2019-01-11T17:08:10.350Z,58.75
2019-01-11T17:10:38.906Z,55.52
2019-01-11T17:13:07.512Z,49.00
2019-01-11T17:15:36.608Z,46.45
2019-01-11T17:18:05.255Z,50.20
2019-01-11T17:20:33.799Z,45.92
2019-01-11T17:23:02.392Z,50.48
2019-01-11T17:25:30.955Z,44.48
2019-01-11T17:27:59.539Z,54.83
2019-01-11T17:30:28.111Z,51.02
2019-01-11T17:32:56.714Z,55.00
2019-01-11T17:35:25.271Z,63.38
2019-01-11T17:37:53.834Z,53.87
2019-01-11T17:40:22.426Z,54.83
2019-01-11T17:42:51.053Z,50.50
2019-01-11T17:45:19.620Z,57.13
2019-01-11T17:47:48.178Z,56.10
2019-01-11T17:50:16.912Z,52.70
2019-01-11T17:52:45.545Z,45.65
2019-01-11T17:55:14.196Z,49.13
2019-01-11T17:57:42.836Z,48.92
2019-01-11T18:00:14.055Z,49.33
2019-01-11T18:02:42.751Z,49.95
2019-01-11T18:05:12.968Z,51.58
2019-01-11T18:07:41.533Z,41.05
2019-01-11T18:10:11.323Z,53.02
2019-01-11T18:12:40.126Z,49.42
2019-01-11T18:15:11.764Z,55.17
2019-01-11T18:17:40.329Z,49.13
2019-01-11T18:20:20.372Z,49.77
2019-01-11T18:22:48.936Z,50.40
2019-01-11T18:25:17.523Z,52.75
2019-01-11T18:27:46.138Z,48.28
2019-01-11T18:30:18.703Z,44.55
2019-01-11T18:32:47.408Z,57.20
2019-01-11T18:35:16.840Z,53.33
2019-01-11T18:37:45.403Z,47.50
2019-01-11T18:40:19.292Z,46.02
2019-01-11T18:42:47.937Z,39.58
2019-01-11T18:45:17.075Z,45.05
2019-01-11T18:47:45.622Z,43.65
2019-01-11T18:50:16.640Z,49.35
2019-01-11T18:52:45.278Z,44.77
2019-01-11T18:55:13.942Z,46.40
2019-01-11T18:57:42.673Z,50.95
2019-01-11T19:00:16.694Z,44.50
2019-01-11T19:02:45.366Z,41.20
2019-01-11T19:05:15.051Z,49.23
2019-01-11T19:07:46.097Z,44.65
2019-01-11T19:10:16.068Z,45.50
2019-01-11T19:12:44.695Z,52.75
2019-01-11T19:15:15.828Z,48.45
2019-01-11T19:17:44.391Z,47.08
2019-01-11T19:20:17.882Z,45.30
2019-01-11T19:22:46.451Z,51.58
2019-01-11T19:25:15.211Z,43.55
2019-01-11T19:27:43.839Z,48.33
2019-01-11T19:30:18.041Z,46.10
2019-01-11T19:32:46.755Z,44.40
2019-01-11T19:35:15.445Z,41.45
2019-01-11T19:37:44.056Z,38.28
2019-01-11T19:40:16.900Z,39.30
2019-01-11T19:42:45.502Z,39.65
2019-01-11T19:45:16.267Z,39.40
2019-01-11T19:47:45.290Z,38.00
2019-01-11T19:50:16.682Z,39.23
2019-01-11T19:52:45.240Z,39.50
2019-01-11T19:55:14.194Z,38.55
2019-01-11T19:57:42.851Z,35.55
2019-01-11T20:00:14.590Z,37.45
2019-01-11T20:02:43.236Z,43.70
2019-01-11T20:05:12.275Z,43.02
2019-01-11T20:07:40.896Z,39.27
2019-01-11T20:10:12.569Z,42.43
2019-01-11T20:12:41.128Z,45.48
2019-01-11T20:15:09.956Z,45.05
2019-01-11T20:17:38.528Z,37.50
2019-01-11T20:20:10.510Z,44.45
2019-01-11T20:22:39.075Z,40.12
2019-01-11T20:25:10.735Z,41.15
2019-01-11T20:27:39.307Z,39.27
2019-01-11T20:30:10.976Z,40.38
2019-01-11T20:32:39.539Z,38.50
2019-01-11T20:35:08.263Z,35.28
2019-01-11T20:37:36.895Z,37.65
2019-01-11T20:40:08.892Z,43.85
2019-01-11T20:42:37.460Z,41.30
2019-01-11T20:45:08.058Z,41.95
2019-01-11T20:47:36.647Z,42.53
2019-01-11T20:50:08.349Z,38.35
2019-01-11T20:52:36.871Z,42.05
2019-01-11T20:55:07.879Z,34.80
2019-01-11T20:57:36.467Z,38.23
2019-01-11T21:00:14.124Z,38.50
2019-01-11T21:02:42.764Z,36.00
2019-01-11T21:05:12.169Z,40.33
2019-01-11T21:07:40.838Z,40.25
2019-01-11T21:10:11.146Z,44.85
2019-01-11T21:12:39.813Z,44.50
2019-01-11T21:15:11.278Z,50.28
2019-01-11T21:17:39.874Z,38.67
2019-01-11T21:20:11.680Z,48.30
2019-01-11T21:22:40.334Z,44.15
2019-01-11T21:25:11.243Z,38.53
2019-01-11T21:27:39.904Z,40.98
2019-01-11T21:30:14.035Z,33.35
2019-01-11T21:32:42.623Z,35.52
2019-01-11T21:35:11.423Z,37.85
2019-01-11T21:37:40.007Z,46.88
2019-01-11T21:40:11.922Z,49.63
2019-01-11T21:42:40.502Z,51.48
2019-01-11T21:45:10.502Z,43.38
2019-01-11T21:47:39.094Z,42.62
2019-01-11T21:50:10.734Z,38.40
2019-01-11T21:52:39.327Z,43.15
2019-01-11T21:55:08.731Z,42.98
2019-01-11T21:57:37.323Z,43.75
2019-01-11T22:00:23.804Z,40.12
2019-01-11T22:02:52.392Z,40.10
2019-01-11T22:05:21.031Z,43.28
2019-01-11T22:07:49.687Z,44.33
2019-01-11T22:10:18.255Z,37.45
2019-01-11T22:12:47.749Z,37.03
2019-01-11T22:15:21.271Z,44.63
2019-01-11T22:17:49.787Z,35.10
2019-01-11T22:20:19.098Z,40.60
2019-01-11T22:22:47.754Z,37.50
2019-01-11T22:25:17.658Z,35.85
2019-01-11T22:27:46.243Z,32.33
2019-01-11T22:30:20.635Z,36.33
2019-01-11T22:32:49.220Z,36.20
2019-01-11T22:35:18.527Z,33.98
2019-01-11T22:37:47.246Z,34.98
2019-01-11T22:40:21.348Z,37.80
2019-01-11T22:42:51.766Z,36.63
2019-01-11T22:45:20.335Z,44.25
2019-01-11T22:47:48.928Z,35.73
2019-01-11T22:50:17.555Z,34.90
2019-01-11T22:52:46.148Z,38.15
2019-01-11T22:55:16.856Z,34.63
2019-01-11T22:57:45.664Z,31.87
2019-01-11T23:00:39.867Z,37.42
2019-01-11T23:03:14.399Z,45.45
2019-01-11T23:05:42.971Z,43.17
2019-01-11T23:08:13.695Z,42.50
2019-01-11T23:10:48.245Z,45.25
2019-01-11T23:13:16.828Z,52.25
2019-01-11T23:15:45.467Z,47.15
2019-01-11T23:18:14.056Z,40.08
2019-01-11T23:20:42.687Z,45.52
2019-01-11T23:23:11.295Z,43.50
2019-01-11T23:25:39.860Z,48.13
2019-01-11T23:28:08.423Z,37.98
2019-01-11T23:30:37.082Z,42.78
2019-01-11T23:33:05.720Z,44.13
2019-01-11T23:35:34.303Z,42.83
2019-01-11T23:38:02.875Z,42.45
2019-01-11T23:40:31.467Z,41.25
2019-01-11T23:43:00.036Z,55.03
2019-01-11T23:45:28.699Z,42.35
2019-01-11T23:47:57.263Z,40.75
2019-01-11T23:50:25.847Z,42.73
2019-01-11T23:52:54.416Z,43.60
2019-01-11T23:55:23.003Z,42.13
2019-01-11T23:57:51.576Z,40.17
